KHII

Lake Havasu City Airport

Lake Havasu City, Arizona, USA
METAR KHII 212330Z AUTO 20009G16KT 10SM CLR 44/M03 A2973 RMK AO2
Observed Flight Rules
Jun-21 @ 23:30 UTC (24 minutes ago) Visual Flight Rules
Wind Visibility Clouds
200° at 9 knots
 Gusting to 16 knots
10 miles
  • Clear skies
Temperatures Readings
Current 44°C / 111°F
Dewpoint -3°C / 27°F
Humidity 5%
Altimeter 29.73" Hg
Pressure 1007 hPa
Elevation 238
METAR KHII 212330Z AUTO 20009G16KT 10SM CLR 44/M03 A2973 RMK AO2
Observed Flight Rules
Jun-21 @ 23:30 UTC
(24 minutes ago)
VFR
Wind Visibility
200° at 9 knots
 Gusting to 16 knots
10 miles
Clouds
  • Clear skies
Temperature Dewpoint
44°C / 111°F -3°C / 27°F
Humidity Altimeter Pressure
5% 29.73" Hg 1007 hPa